Terminal Aerodrome Forecast
Issued by NWS

Home | Current Version | Previous Version | Text Only | Print | Product List | Glossary On
Versions: 1 2 3 4 5 6 7 8 9 10 11 12 13 14 15 16 17 18 19 20 21 22 23 24 25 26 27 28 29 30
000
FTUS43 KLOT 242336
TAFDPA
TAF
KDPA 242336Z 2500/2524 09010KT 6SM BR VCSH BKN070
     FM250100 13008G15KT P6SM OVC060
     FM250200 17012G20KT P6SM BKN040 OVC080
     FM250700 19013G20KT P6SM VCTS BKN040CB OVC080
      TEMPO 2509/2512 TSRA BKN040CB
     FM251300 19023G34KT P6SM VCSH BKN020 OVC040
     FM251600 23023G34KT P6SM SCT035=

USA.gov is the U.S. government's official web portal to all federal, state and local government web resources and services.